createdAt,value
2022-08-18T00:02:11.282Z,98145.28
2022-08-18T00:04:46.021Z,98145.47
2022-08-18T00:07:22.199Z,98130.44
2022-08-18T00:09:48.938Z,98132.66
2022-08-18T00:12:17.353Z,98137.44
2022-08-18T00:14:45.130Z,98126.75
2022-08-18T00:17:11.633Z,98151.69
2022-08-18T00:19:47.580Z,98172.66
2022-08-18T00:22:17.579Z,98186.63
2022-08-18T00:24:48.162Z,98182.53
2022-08-18T00:27:23.645Z,98180.06
2022-08-18T00:29:51.355Z,98174.72
2022-08-18T00:32:27.467Z,98183.34
2022-08-18T00:34:54.278Z,98176.38
2022-08-18T00:37:22.204Z,98164.34
2022-08-18T00:39:51.976Z,98147.88
2022-08-18T00:42:27.353Z,98148.41
2022-08-18T00:44:57.338Z,98144.28
2022-08-18T00:47:41.024Z,98128.47
2022-08-18T00:50:15.013Z,98128.28
2022-08-18T00:52:46.168Z,98126.06
2022-08-18T00:55:12.698Z,98137.19
2022-08-18T00:57:40.295Z,98136.78
2022-08-18T01:00:11.716Z,98135.56
2022-08-18T01:02:46.472Z,98139.69
2022-08-18T01:05:24.478Z,98152.06
2022-08-18T01:07:51.443Z,98154.91
2022-08-18T01:10:21.194Z,98153.47
2022-08-18T01:12:51.157Z,98147.94
2022-08-18T01:15:28.268Z,98154.53
2022-08-18T01:18:17.584Z,98172.22
2022-08-18T01:21:21.503Z,98176.56
2022-08-18T01:23:49.789Z,98173.66
2022-08-18T01:26:18.321Z,98155.31
2022-08-18T01:28:46.678Z,98149.97
2022-08-18T01:31:29.958Z,98142.53
2022-08-18T01:33:57.338Z,98151.41
2022-08-18T01:36:24.227Z,98153.88
2022-08-18T01:38:53.259Z,98152.84
2022-08-18T01:41:29.815Z,98159.44
2022-08-18T01:43:59.699Z,98172.63
2022-08-18T01:46:27.579Z,98167.91
2022-08-18T01:48:54.010Z,98156.56
2022-08-18T01:51:38.181Z,98148.34
2022-08-18T01:54:07.113Z,98153.31
2022-08-18T01:56:33.539Z,98136.78
2022-08-18T01:59:00.148Z,98128.56
2022-08-18T02:01:36.413Z,98107.97
2022-08-18T02:04:33.150Z,98113.94
2022-08-18T02:06:56.253Z,98115.78
2022-08-18T02:09:24.454Z,98119.84
2022-08-18T02:11:53.113Z,98114.94
2022-08-18T02:14:25.007Z,98116.41
2022-08-18T02:16:57.015Z,98120.28
2022-08-18T02:19:28.355Z,98113.31
2022-08-18T02:21:54.820Z,98111.00
2022-08-18T02:24:21.503Z,98105.09
2022-08-18T02:26:47.904Z,98098.09
2022-08-18T02:29:14.372Z,98090.25
2022-08-18T02:31:40.841Z,98093.56
2022-08-18T02:34:07.248Z,98091.50
2022-08-18T02:36:33.670Z,98093.56
2022-08-18T02:39:00.376Z,98100.56
2022-08-18T02:41:29.590Z,98101.00
2022-08-18T02:43:57.978Z,98110.88
2022-08-18T02:46:29.952Z,98115.22
2022-08-18T02:48:57.014Z,98119.53
2022-08-18T02:51:23.506Z,98130.25
2022-08-18T02:53:53.883Z,98123.03
2022-08-18T02:56:32.903Z,98126.28
2022-08-18T02:59:11.143Z,98109.63
2022-08-18T03:01:41.028Z,98108.41
2022-08-18T03:04:10.621Z,98106.31
2022-08-18T03:06:39.159Z,98101.16
2022-08-18T03:09:08.285Z,98096.84
2022-08-18T03:11:35.714Z,98092.56
2022-08-18T03:14:03.101Z,98096.09
2022-08-18T03:16:33.203Z,98097.53
2022-08-18T03:19:01.189Z,98099.81
2022-08-18T03:21:30.992Z,98108.84
2022-08-18T03:24:00.837Z,98113.19
2022-08-18T03:26:30.158Z,98096.53
2022-08-18T03:28:58.616Z,98100.63
2022-08-18T03:31:27.971Z,98103.56
2022-08-18T03:33:57.139Z,98104.34
2022-08-18T03:36:29.014Z,98111.16
2022-08-18T03:38:56.165Z,98105.59
2022-08-18T03:41:57.117Z,98096.97
2022-08-18T03:44:14.331Z,98108.44
2022-08-18T03:46:43.273Z,98108.88
2022-08-18T03:49:09.722Z,98098.41
2022-08-18T03:51:37.383Z,98110.72
2022-08-18T03:54:05.017Z,98095.72
2022-08-18T03:56:35.602Z,98104.78
2022-08-18T03:59:05.872Z,98097.16
2022-08-18T04:01:36.817Z,98101.09
2022-08-18T04:04:04.997Z,98096.13
2022-08-18T04:06:34.712Z,98116.53
2022-08-18T04:09:04.341Z,98122.47
2022-08-18T04:11:36.570Z,98121.66
2022-08-18T04:14:05.723Z,98115.91
2022-08-18T04:16:34.183Z,98123.34
2022-08-18T04:19:05.992Z,98114.25
2022-08-18T04:21:38.211Z,98113.63
2022-08-18T04:24:05.499Z,98106.88
2022-08-18T04:26:33.899Z,98119.63
2022-08-18T04:29:01.667Z,98110.53
2022-08-18T04:31:29.543Z,98110.53
2022-08-18T04:34:00.369Z,98108.31
2022-08-18T04:36:27.863Z,98131.16
2022-08-18T04:38:56.410Z,98133.00
2022-08-18T04:41:27.563Z,98103.13
2022-08-18T04:43:58.566Z,98109.09
2022-08-18T04:46:27.216Z,98117.97
2022-08-18T04:48:59.086Z,98123.75
2022-08-18T04:52:37.357Z,98121.25
2022-08-18T04:54:16.110Z,98111.78
2022-08-18T04:56:43.666Z,98112.41
2022-08-18T04:59:14.286Z,98114.88
2022-08-18T05:01:45.896Z,98130.31
2022-08-18T05:04:14.691Z,98126.00
2022-08-18T05:06:43.509Z,98123.31
2022-08-18T05:09:12.284Z,98121.66
2022-08-18T05:11:39.274Z,98123.13
2022-08-18T05:14:08.081Z,98130.31
2022-08-18T05:16:47.949Z,98142.44
2022-08-18T05:19:19.260Z,98153.13
2022-08-18T05:21:46.039Z,98148.19
2022-08-18T05:24:18.240Z,98141.81
2022-08-18T05:26:45.426Z,98157.69
2022-08-18T05:29:18.341Z,98157.66
2022-08-18T05:31:47.101Z,98162.78
2022-08-18T05:34:13.684Z,98155.75
2022-08-18T05:36:53.379Z,98164.41
2022-08-18T05:39:25.500Z,98179.63
2022-08-18T05:42:06.217Z,98178.59
2022-08-18T05:44:40.727Z,98169.31
2022-08-18T05:47:13.729Z,98180.25
2022-08-18T05:49:44.087Z,98181.88
2022-08-18T05:52:20.662Z,98187.38
2022-08-18T05:55:12.921Z,98199.28
2022-08-18T05:57:51.581Z,98219.06
2022-08-18T06:00:20.990Z,98225.03
2022-08-18T06:02:54.307Z,98221.09
2022-08-18T06:05:28.210Z,98228.84
2022-08-18T06:08:06.046Z,98234.22
2022-08-18T06:10:32.654Z,98232.59
2022-08-18T06:13:01.480Z,98225.47
2022-08-18T06:15:34.098Z,98216.63
2022-08-18T06:18:27.680Z,98246.59
2022-08-18T06:21:23.601Z,98246.06
2022-08-18T06:24:27.490Z,98251.25
2022-08-18T06:27:18.182Z,98254.97
2022-08-18T06:30:07.002Z,98256.53
2022-08-18T06:32:42.698Z,98250.59
2022-08-18T06:35:18.686Z,98265.09
2022-08-18T06:38:21.703Z,98279.91
2022-08-18T06:40:49.856Z,98273.63
2022-08-18T06:43:17.276Z,98273.69
2022-08-18T06:45:50.378Z,98276.16
2022-08-18T06:48:32.386Z,98288.03
2022-08-18T06:51:02.514Z,98267.28
2022-08-18T06:53:52.656Z,98258.97
2022-08-18T06:56:28.468Z,98271.16
2022-08-18T06:59:26.251Z,98288.53
2022-08-18T07:02:22.614Z,98288.69
2022-08-18T07:05:00.025Z,98294.97
2022-08-18T07:07:50.982Z,98290.75
2022-08-18T07:10:17.404Z,98296.13
2022-08-18T07:12:44.046Z,98296.41
2022-08-18T07:15:13.235Z,98305.50
2022-08-18T07:17:51.465Z,98305.34
2022-08-18T07:20:24.798Z,98320.63
2022-08-18T07:23:07.911Z,98329.56
2022-08-18T07:25:41.307Z,98320.22
2022-08-18T07:28:32.168Z,98327.84
2022-08-18T07:31:17.466Z,98348.03
2022-08-18T07:33:51.708Z,98358.63
2022-08-18T07:36:21.630Z,98352.09
2022-08-18T07:39:11.564Z,98377.94
2022-08-18T07:41:57.474Z,98372.28
2022-08-18T07:44:40.649Z,98362.13
2022-08-18T07:47:17.697Z,98351.50
2022-08-18T07:50:15.800Z,98359.03
2022-08-18T07:52:47.238Z,98345.88
2022-08-18T07:55:14.090Z,98296.78
2022-08-18T07:58:00.250Z,98281.69
2022-08-18T08:00:57.677Z,98299.41
2022-08-18T08:03:38.554Z,98278.84
2022-08-18T08:06:19.047Z,98257.84
2022-08-18T08:09:12.570Z,98241.22
2022-08-18T08:11:57.540Z,98220.59
2022-08-18T08:14:39.489Z,98189.53
2022-08-18T08:17:30.436Z,98160.13
2022-08-18T08:20:02.815Z,98142.16
2022-08-18T08:22:37.186Z,98142.47
2022-08-18T08:25:22.447Z,98149.75
2022-08-18T08:28:20.445Z,98148.47
2022-08-18T08:31:25.711Z,98154.13
2022-08-18T08:33:54.332Z,98152.84
2022-08-18T08:36:27.974Z,98128.56
2022-08-18T08:39:00.177Z,98128.19
2022-08-18T08:41:41.379Z,98110.91
2022-08-18T08:44:18.040Z,98125.13
2022-08-18T08:46:56.042Z,98122.94
2022-08-18T08:49:39.262Z,98113.78
2022-08-18T08:52:20.246Z,98125.44
2022-08-18T08:54:53.700Z,98124.94
2022-08-18T08:57:26.857Z,98127.09
2022-08-18T08:59:57.823Z,98091.69
2022-08-18T09:02:58.704Z,98054.81
2022-08-18T09:05:35.165Z,98059.50
2022-08-18T09:08:28.735Z,98064.38
2022-08-18T09:11:19.276Z,98030.16
2022-08-18T09:14:10.249Z,98015.56
2022-08-18T09:17:15.511Z,97982.13
2022-08-18T09:20:04.540Z,97967.06
2022-08-18T09:22:52.168Z,97964.09
2022-08-18T09:25:37.470Z,97948.50
2022-08-18T09:28:27.851Z,97938.91
2022-08-18T09:31:04.656Z,97933.06
2022-08-18T09:33:38.544Z,97919.28
2022-08-18T09:36:30.355Z,97885.13
2022-08-18T09:39:23.295Z,97884.44
2022-08-18T09:42:01.609Z,97888.16
2022-08-18T09:44:48.194Z,97869.97
2022-08-18T09:47:34.973Z,97876.59
2022-08-18T09:50:04.777Z,97858.59
2022-08-18T09:52:37.294Z,97853.16
2022-08-18T09:55:27.125Z,97847.03
2022-08-18T09:58:53.245Z,97833.16
2022-08-18T10:01:22.693Z,97830.69
2022-08-18T10:04:29.297Z,97817.38
2022-08-18T10:07:36.940Z,97815.25
2022-08-18T10:10:58.790Z,97815.47
2022-08-18T10:13:10.730Z,97813.88
2022-08-18T10:16:11.461Z,97821.75
2022-08-18T10:18:51.382Z,97844.50
2022-08-18T10:21:31.311Z,97880.03
2022-08-18T10:26:54.762Z,97907.72
2022-08-18T10:29:27.350Z,97941.56
2022-08-18T10:31:57.620Z,97959.28
2022-08-18T10:34:51.766Z,97934.44
2022-08-18T10:37:32.404Z,97936.41
2022-08-18T10:40:04.919Z,97970.28
2022-08-18T10:43:01.266Z,97956.63
2022-08-18T10:45:35.885Z,98001.91
2022-08-18T10:48:05.602Z,98038.31
2022-08-18T10:50:52.473Z,98021.81
2022-08-18T10:53:44.258Z,98040.63
2022-08-18T10:56:26.733Z,98054.97
2022-08-18T10:59:16.345Z,98077.63
2022-08-18T11:02:04.689Z,98095.94
2022-08-18T11:04:38.620Z,98075.31
2022-08-18T11:07:10.835Z,98085.13
2022-08-18T11:09:41.966Z,98103.78
2022-08-18T11:12:12.759Z,98140.03
2022-08-18T11:14:42.901Z,98177.63
2022-08-18T11:17:33.093Z,98195.50
2022-08-18T11:20:01.336Z,98214.97
2022-08-18T11:22:34.199Z,98234.66
2022-08-18T11:25:04.582Z,98308.06
2022-08-18T11:27:35.562Z,98351.94
2022-08-18T11:30:05.929Z,98353.31
2022-08-18T11:32:39.358Z,98386.03
2022-08-18T11:35:45.556Z,98379.16
2022-08-18T11:38:23.279Z,98399.66
2022-08-18T11:41:18.859Z,98428.19
2022-08-18T11:43:47.398Z,98489.50
2022-08-18T11:46:38.746Z,98522.69
2022-08-18T11:49:26.496Z,98535.75
2022-08-18T11:52:03.011Z,98561.66
2022-08-18T11:54:39.236Z,98546.75
2022-08-18T11:57:51.681Z,98560.94
2022-08-18T12:00:36.753Z,98539.38
2022-08-18T12:03:22.345Z,98532.59
2022-08-18T12:05:56.568Z,98516.09
2022-08-18T12:08:57.471Z,98480.53
2022-08-18T12:11:32.604Z,98512.13
2022-08-18T12:14:30.179Z,98461.44
2022-08-18T12:16:50.882Z,98435.44
2022-08-18T12:19:23.430Z,98406.66
2022-08-18T12:21:56.839Z,98408.56
2022-08-18T12:24:34.316Z,98385.97
2022-08-18T12:27:20.592Z,98402.28
2022-08-18T12:29:48.433Z,98399.63
2022-08-18T12:32:18.222Z,98392.81
2022-08-18T12:35:09.182Z,98422.38
2022-08-18T12:37:58.816Z,98427.97
2022-08-18T12:40:22.715Z,98475.00
2022-08-18T12:42:49.816Z,98493.44
2022-08-18T12:45:16.626Z,98526.06
2022-08-18T12:47:43.097Z,98524.16
2022-08-18T12:50:10.266Z,98514.56
2022-08-18T12:52:37.096Z,98526.44
2022-08-18T12:55:21.765Z,98502.84
2022-08-18T13:00:36.199Z,98520.63
2022-08-18T13:03:02.816Z,98539.00
2022-08-18T13:05:30.072Z,98531.38
2022-08-18T13:08:00.350Z,98459.00
2022-08-18T13:10:45.167Z,98448.13
2022-08-18T13:13:13.764Z,98440.91
2022-08-18T13:15:44.196Z,98425.78
2022-08-18T13:18:14.380Z,98390.25
2022-08-18T13:20:42.264Z,98404.75
2022-08-18T13:23:12.016Z,98400.69
2022-08-18T13:25:39.770Z,98385.19
2022-08-18T13:28:06.678Z,98395.47
2022-08-18T13:30:35.644Z,98393.34
2022-08-18T13:33:35.373Z,98398.81
2022-08-18T13:35:52.066Z,98406.50
2022-08-18T13:38:27.729Z,98405.28
2022-08-18T13:40:57.858Z,98337.78
2022-08-18T13:43:31.982Z,98338.06
2022-08-18T13:45:59.987Z,98344.31
2022-08-18T13:48:28.348Z,98350.88
2022-08-18T13:51:00.004Z,98356.09
2022-08-18T13:53:29.840Z,98342.56
2022-08-18T13:55:58.650Z,98339.31
2022-08-18T13:58:25.693Z,98345.44
2022-08-18T14:01:22.711Z,98341.19
2022-08-18T14:03:47.265Z,98330.78
2022-08-18T14:06:14.834Z,98323.53
2022-08-18T14:08:41.767Z,98328.22
2022-08-18T14:11:09.471Z,98335.44
2022-08-18T14:13:43.668Z,98336.19
2022-08-18T14:16:18.766Z,98288.72
2022-08-18T14:19:09.469Z,98291.34
2022-08-18T14:22:01.742Z,98302.13
2022-08-18T14:24:48.754Z,98306.13
2022-08-18T14:27:16.428Z,98316.44
2022-08-18T14:29:46.991Z,98282.69
2022-08-18T14:32:21.955Z,98293.03
2022-08-18T14:34:59.979Z,98277.16
2022-08-18T14:37:27.672Z,98292.06
2022-08-18T14:39:54.342Z,98296.38
2022-08-18T14:42:40.999Z,98283.66
2022-08-18T14:45:26.745Z,98294.59
2022-08-18T14:47:56.680Z,98302.22
2022-08-18T14:50:25.198Z,98301.03
2022-08-18T14:52:53.143Z,98307.22
2022-08-18T14:55:20.692Z,98298.47
2022-08-18T14:57:47.251Z,98300.69
2022-08-18T15:00:17.880Z,98289.91
2022-08-18T15:02:51.594Z,98284.13
2022-08-18T15:05:19.442Z,98298.78
2022-08-18T15:07:47.731Z,98307.25
2022-08-18T15:10:19.672Z,98295.19
2022-08-18T15:12:49.667Z,98309.81
2022-08-18T15:15:18.252Z,98314.91
2022-08-18T15:17:45.202Z,98314.16
2022-08-18T15:20:16.772Z,98297.94
2022-08-18T15:23:04.704Z,98301.22
2022-08-18T15:25:46.694Z,98297.44
2022-08-18T15:28:21.735Z,98289.06
2022-08-18T15:30:52.061Z,98284.31
2022-08-18T15:33:23.696Z,98298.94
2022-08-18T15:35:52.298Z,98301.75
2022-08-18T15:38:20.988Z,98293.81
2022-08-18T15:40:58.018Z,98292.69
2022-08-18T15:43:31.532Z,98303.84
2022-08-18T15:46:00.205Z,98302.59
2022-08-18T15:48:28.592Z,98297.06
2022-08-18T15:50:55.533Z,98302.22
2022-08-18T15:53:29.781Z,98301.47
2022-08-18T15:55:57.278Z,98306.47
2022-08-18T15:58:26.985Z,98297.97
2022-08-18T16:00:56.258Z,98293.91
2022-08-18T16:03:25.582Z,98301.41
2022-08-18T16:05:54.931Z,98301.16
2022-08-18T16:08:23.919Z,98303.28
2022-08-18T16:10:51.047Z,98292.50
2022-08-18T16:13:17.651Z,98300.50
2022-08-18T16:15:46.917Z,98301.94
2022-08-18T16:18:15.515Z,98306.25
2022-08-18T16:20:43.324Z,98311.97
2022-08-18T16:23:12.122Z,98317.41
2022-08-18T16:25:42.825Z,98314.53
2022-08-18T16:28:10.205Z,98311.13
2022-08-18T16:30:36.788Z,98302.16
2022-08-18T16:33:06.266Z,98310.75
2022-08-18T16:35:34.682Z,98303.16
2022-08-18T16:38:09.296Z,98303.66
2022-08-18T16:40:36.233Z,98305.75
2022-08-18T16:43:02.673Z,98297.00
2022-08-18T16:45:31.463Z,98294.13
2022-08-18T16:47:57.891Z,98281.13
2022-08-18T16:50:25.382Z,98276.28
2022-08-18T16:52:52.059Z,98289.66
2022-08-18T16:55:18.715Z,98293.47
2022-08-18T16:58:03.926Z,98304.94
2022-08-18T17:00:54.548Z,98303.41
2022-08-18T17:03:43.138Z,98292.34
2022-08-18T17:06:13.803Z,98300.13
2022-08-18T17:08:42.663Z,98282.50
2022-08-18T17:11:19.604Z,98266.53
2022-08-18T17:13:48.416Z,98260.19
2022-08-18T17:16:16.396Z,98258.03
2022-08-18T17:18:43.405Z,98253.22
2022-08-18T17:21:13.267Z,98256.63
2022-08-18T17:23:42.076Z,98252.66
2022-08-18T17:26:28.615Z,98241.41
2022-08-18T17:29:19.179Z,98245.72
2022-08-18T17:31:52.988Z,98244.09
2022-08-18T17:34:23.461Z,98234.38
2022-08-18T17:36:56.482Z,98246.38
2022-08-18T17:39:32.790Z,98235.03
2022-08-18T17:42:18.179Z,98248.31
2022-08-18T17:44:52.051Z,98244.06
2022-08-18T17:47:37.791Z,98246.53
2022-08-18T17:50:27.871Z,98239.69
2022-08-18T17:53:07.414Z,98234.41
2022-08-18T17:55:44.104Z,98230.28
2022-08-18T17:58:42.256Z,98221.53
2022-08-18T18:01:10.713Z,98218.91
2022-08-18T18:03:38.009Z,98220.47
2022-08-18T18:06:38.758Z,98219.41
2022-08-18T18:09:29.262Z,98199.75
2022-08-18T18:11:55.894Z,98207.94
2022-08-18T18:14:39.612Z,98210.34
2022-08-18T18:17:12.741Z,98212.88
2022-08-18T18:19:42.679Z,98214.91
2022-08-18T18:22:18.421Z,98195.38
2022-08-18T18:25:00.509Z,98174.88
2022-08-18T18:27:29.971Z,98174.84
2022-08-18T18:30:27.325Z,98171.47
2022-08-18T18:33:18.652Z,98159.03
2022-08-18T18:35:54.227Z,98160.22
2022-08-18T18:38:40.676Z,98166.44
2022-08-18T18:41:10.201Z,98174.53
2022-08-18T18:43:41.998Z,98156.03
2022-08-18T18:46:32.213Z,98146.16
2022-08-18T18:49:10.816Z,98145.38
2022-08-18T18:52:06.115Z,98138.91
2022-08-18T18:54:38.429Z,98133.66
2022-08-18T18:57:12.753Z,98123.34
2022-08-18T19:00:16.753Z,98126.16
2022-08-18T19:02:54.121Z,98120.91
2022-08-18T19:05:25.006Z,98110.72
2022-08-18T19:08:24.544Z,98105.91
2022-08-18T19:11:16.329Z,98109.06
2022-08-18T19:13:57.527Z,98111.78
2022-08-18T19:16:42.570Z,98118.00
2022-08-18T19:19:37.576Z,98096.09
2022-08-18T19:22:34.697Z,98090.25
2022-08-18T19:25:13.394Z,98098.53
2022-08-18T19:27:51.379Z,98103.09
2022-08-18T19:30:21.335Z,98101.25
2022-08-18T19:32:55.104Z,98099.38
2022-08-18T19:35:58.851Z,98089.97
2022-08-18T19:38:29.931Z,98055.41
2022-08-18T19:41:05.766Z,98037.16
2022-08-18T19:43:47.787Z,98044.53
2022-08-18T19:46:24.790Z,98019.34
2022-08-18T19:49:08.811Z,97982.97
2022-08-18T19:51:39.946Z,97973.63
2022-08-18T19:54:21.467Z,97972.81
2022-08-18T19:57:16.145Z,97968.47
2022-08-18T20:00:12.075Z,97937.41
2022-08-18T20:02:49.536Z,97912.03
2022-08-18T20:05:16.906Z,97887.00
2022-08-18T20:08:02.593Z,97885.25
2022-08-18T20:10:57.890Z,97881.50
2022-08-18T20:13:43.350Z,97870.19
2022-08-18T20:16:44.389Z,97851.72
2022-08-18T20:19:44.765Z,97836.03
2022-08-18T20:22:30.661Z,97812.91
2022-08-18T20:25:08.261Z,97815.00
2022-08-18T20:27:49.978Z,97818.28
2022-08-18T20:30:19.430Z,97816.88
2022-08-18T20:33:17.860Z,97807.53
2022-08-18T20:35:47.338Z,97798.88
2022-08-18T20:38:17.826Z,97792.59
2022-08-18T20:40:47.984Z,97807.06
2022-08-18T20:43:33.492Z,97772.13
2022-08-18T20:46:36.257Z,97730.00
2022-08-18T20:49:25.570Z,97713.91
2022-08-18T20:52:06.403Z,97702.59
2022-08-18T20:55:00.402Z,97683.63
2022-08-18T20:57:38.009Z,97671.59
2022-08-18T21:00:21.359Z,97667.50
2022-08-18T21:02:59.029Z,97660.59
2022-08-18T21:05:34.992Z,97660.94
2022-08-18T21:08:16.039Z,97662.47
2022-08-18T21:10:51.708Z,97669.34
2022-08-18T21:13:46.165Z,97678.88
2022-08-18T21:16:38.328Z,97684.94
2022-08-18T21:19:08.926Z,97698.47
2022-08-18T21:21:39.791Z,97702.22
2022-08-18T21:24:18.133Z,97704.72
2022-08-18T21:26:46.561Z,97706.81
2022-08-18T21:29:14.035Z,97713.78
2022-08-18T21:31:45.178Z,97712.03
2022-08-18T21:34:30.359Z,97719.94
2022-08-18T21:36:58.523Z,97717.16
2022-08-18T21:39:25.530Z,97735.88
2022-08-18T21:41:56.100Z,97748.59
2022-08-18T21:44:27.994Z,97761.59
2022-08-18T21:47:14.535Z,97753.88
2022-08-18T21:49:58.359Z,97734.38
2022-08-18T21:52:29.581Z,97738.38
2022-08-18T21:55:01.684Z,97730.75
2022-08-18T21:57:48.251Z,97734.13
2022-08-18T22:00:39.656Z,97739.31
2022-08-18T22:03:22.589Z,97754.50
2022-08-18T22:06:09.608Z,97763.13
2022-08-18T22:08:51.221Z,97774.91
2022-08-18T22:12:01.014Z,97767.53
2022-08-18T22:14:32.911Z,97758.53
2022-08-18T22:17:32.931Z,97752.47
2022-08-18T22:20:42.084Z,97753.19
2022-08-18T22:23:34.676Z,97759.47
2022-08-18T22:26:14.906Z,97763.19
2022-08-18T22:28:52.891Z,97746.09
2022-08-18T22:31:21.421Z,97746.00
2022-08-18T22:33:49.563Z,97734.31
2022-08-18T22:36:19.575Z,97755.84
2022-08-18T22:38:47.677Z,97742.38
2022-08-18T22:41:16.278Z,97738.75
2022-08-18T22:43:42.670Z,97724.69
2022-08-18T22:46:09.408Z,97727.16
2022-08-18T22:48:35.856Z,97709.66
2022-08-18T22:51:02.422Z,97708.41
2022-08-18T22:53:29.914Z,97699.72
2022-08-18T22:55:59.489Z,97686.59
2022-08-18T22:58:32.521Z,97677.50
2022-08-18T23:01:05.327Z,97680.03
2022-08-18T23:03:32.303Z,97678.19
2022-08-18T23:06:09.869Z,97677.97
2022-08-18T23:08:54.873Z,97679.59
2022-08-18T23:11:24.757Z,97678.03
2022-08-18T23:13:52.326Z,97673.94
2022-08-18T23:16:31.501Z,97684.53
2022-08-18T23:19:01.754Z,97668.75
2022-08-18T23:21:34.102Z,97661.84
2022-08-18T23:24:06.949Z,97658.47
2022-08-18T23:26:34.337Z,97665.41
2022-08-18T23:29:00.980Z,97663.25
2022-08-18T23:31:27.886Z,97652.56
2022-08-18T23:33:54.289Z,97643.38
2022-08-18T23:36:20.690Z,97641.47
2022-08-18T23:38:47.091Z,97638.59
2022-08-18T23:41:16.368Z,97639.84
2022-08-18T23:43:42.902Z,97650.88
2022-08-18T23:46:23.842Z,97644.47
2022-08-18T23:48:52.842Z,97638.75
2022-08-18T23:51:30.414Z,97633.91
2022-08-18T23:53:59.657Z,97638.44
2022-08-18T23:56:29.441Z,97625.13
2022-08-18T23:58:57.135Z,97631.38
